Time;durP1;ratioP1;P1;durP2;ratioP2;P2;SDS_P1;SDS_P2;PMS_P1;PMS_P2;Temp;Humidity;BMP_temperature;BMP_pressure;BME280_temperature;BME280_humidity;BME280_pressure;Samples;Min_cycle;Max_cycle;Signal;HPM_P1;HPM_P2
2021/03/01 00:00:14;;;;;;;34.03;20.62;;;;;;;3.42;78.89;98045.38;1781757;80;21568;-83
2021/03/01 00:02:44;;;;;;;32.48;17.48;;;;;;;3.41;78.88;98057.67;1770342;80;21117;-83
2021/03/01 00:05:14;;;;;;;31.10;19.75;;;;;;;3.41;79.11;98068.16;1772474;80;21136;-83
2021/03/01 00:07:42;;;;;;;23.65;15.75;;;;;;;3.44;78.67;98070.89;1765821;80;21177;-83
2021/03/01 00:10:11;;;;;;;30.40;19.57;;;;;;;3.42;79.31;98047.49;1768806;80;21106;-83
2021/03/01 00:12:38;;;;;;;29.07;19.37;;;;;;;3.40;79.36;98041.64;1772837;80;21133;-83
2021/03/01 00:15:10;;;;;;;22.80;13.35;;;;;;;3.38;79.22;98046.28;1783433;80;21273;-83
2021/03/01 00:17:38;;;;;;;32.42;18.57;;;;;;;3.41;79.52;98058.18;1765463;80;21126;-83
2021/03/01 00:20:10;;;;;;;30.88;16.97;;;;;;;3.39;79.24;98044.47;1772677;80;21129;-83
2021/03/01 00:22:38;;;;;;;24.50;17.57;;;;;;;3.38;79.49;98037.58;1765303;80;21512;-82
2021/03/01 00:25:07;;;;;;;29.48;18.67;;;;;;;3.37;79.37;98055.63;1767007;80;21164;-82
2021/03/01 00:27:34;;;;;;;29.60;18.92;;;;;;;3.39;78.99;98081.97;1781162;80;21635;-83
2021/03/01 00:30:02;;;;;;;27.90;17.02;;;;;;;3.44;78.79;98083.48;1768004;80;21203;-82
2021/03/01 00:32:29;;;;;;;25.50;15.63;;;;;;;3.45;78.81;98073.30;1770458;80;21509;-83
2021/03/01 00:34:56;;;;;;;26.87;17.42;;;;;;;3.47;78.71;98090.95;1779855;80;21273;-83
2021/03/01 00:37:23;;;;;;;30.88;17.75;;;;;;;3.48;78.65;98084.70;1770639;80;21120;-82
2021/03/01 00:39:50;;;;;;;29.55;18.80;;;;;;;3.51;78.53;98083.50;1767118;79;21213;-83
2021/03/01 00:42:17;;;;;;;30.90;19.07;;;;;;;3.48;78.62;98076.84;1752575;80;21124;-82
2021/03/01 00:44:44;;;;;;;28.80;18.82;;;;;;;3.48;78.60;98083.89;1772861;80;21160;-83
2021/03/01 00:47:11;;;;;;;25.55;16.85;;;;;;;3.50;78.48;98092.38;1770996;80;21151;-83
2021/03/01 00:49:38;;;;;;;26.35;17.32;;;;;;;3.54;78.40;98093.11;1773818;80;21120;-83
2021/03/01 00:52:05;;;;;;;21.30;14.10;;;;;;;3.56;78.26;98092.41;1771513;79;21148;-83
2021/03/01 00:54:32;;;;;;;32.65;18.35;;;;;;;3.58;78.39;98086.97;1785514;79;21124;-83
2021/03/01 00:56:58;;;;;;;27.37;16.27;;;;;;;3.58;78.21;98097.45;1786680;79;21124;-83
2021/03/01 00:59:26;;;;;;;29.65;17.60;;;;;;;3.61;78.19;98091.00;1783943;79;21165;-83
2021/03/01 01:01:54;;;;;;;24.98;17.07;;;;;;;3.58;78.48;98096.95;1785903;79;21160;-83
2021/03/01 01:04:21;;;;;;;33.60;20.12;;;;;;;3.55;78.58;98103.91;1776625;79;21725;-83
2021/03/01 01:06:48;;;;;;;28.38;19.25;;;;;;;3.52;78.50;98087.27;1783033;79;21485;-83
2021/03/01 01:09:16;;;;;;;31.00;19.92;;;;;;;3.50;78.76;98085.31;1793002;79;21103;-83
2021/03/01 01:11:43;;;;;;;27.90;19.40;;;;;;;3.48;78.87;98091.77;1782535;79;21181;-83
2021/03/01 01:14:11;;;;;;;31.45;19.40;;;;;;;3.46;79.05;98087.22;1795534;79;21123;-83
2021/03/01 01:16:39;;;;;;;34.10;22.87;;;;;;;3.45;79.17;98088.23;1758369;79;21508;-83
2021/03/01 01:19:09;;;;;;;37.33;23.42;;;;;;;3.44;79.03;98090.55;1775263;79;21105;-83
2021/03/01 01:21:36;;;;;;;35.83;22.62;;;;;;;3.44;78.88;98091.36;1783568;79;21546;-83
2021/03/01 01:24:04;;;;;;;34.03;22.27;;;;;;;3.45;78.76;98100.03;1766789;79;21060;-83
2021/03/01 01:26:31;;;;;;;34.85;21.65;;;;;;;3.46;78.69;98092.47;1775403;79;21068;-83
2021/03/01 01:28:58;;;;;;;33.33;20.80;;;;;;;3.51;78.67;98100.03;1787801;79;21532;-83
2021/03/01 01:31:25;;;;;;;32.55;21.42;;;;;;;3.56;78.59;98098.97;1756639;79;21154;-83
2021/03/01 01:33:52;;;;;;;31.27;21.52;;;;;;;3.58;78.47;98106.13;1763997;79;21579;-83
2021/03/01 01:36:19;;;;;;;33.38;20.43;;;;;;;3.61;78.42;98111.98;1789316;79;21524;-83
2021/03/01 01:38:46;;;;;;;29.05;18.87;;;;;;;3.65;78.35;98113.20;1772571;79;21435;-83
2021/03/01 01:41:13;;;;;;;27.75;18.27;;;;;;;3.61;78.18;98115.41;1779767;79;21616;-83
2021/03/01 01:43:40;;;;;;;29.20;18.12;;;;;;;3.55;78.10;98123.57;1759326;79;21159;-83
2021/03/01 01:46:07;;;;;;;30.57;20.17;;;;;;;3.49;78.17;98125.65;1774693;79;21129;-83
2021/03/01 01:48:34;;;;;;;31.90;22.02;;;;;;;3.47;78.15;98132.09;1782558;79;21171;-83
2021/03/01 01:51:01;;;;;;;31.45;20.27;;;;;;;3.47;78.17;98136.03;1749760;81;21103;-83
2021/03/01 01:53:28;;;;;;;31.95;20.05;;;;;;;3.48;78.19;98139.77;1741309;81;21120;-83
2021/03/01 01:55:55;;;;;;;32.60;20.80;;;;;;;3.49;78.16;98142.69;1763575;80;21089;-83
2021/03/01 01:58:23;;;;;;;30.92;19.98;;;;;;;3.49;78.10;98138.75;1742129;80;21176;-83
2021/03/01 02:00:50;;;;;;;33.10;20.95;;;;;;;3.49;78.03;98140.57;1754303;81;21173;-83
2021/03/01 02:03:45;;;;;;;28.40;20.02;;;;;;;3.48;78.04;98138.95;1778339;80;21135;-83
2021/03/01 02:06:36;;;;;;;31.75;21.75;;;;;;;3.45;78.01;98142.78;1776968;80;21525;-83
2021/03/01 02:09:30;;;;;;;32.88;19.92;;;;;;;3.45;77.96;98148.02;1755558;80;21103;-83
2021/03/01 02:12:42;;;;;;;25.97;17.87;;;;;;;3.39;77.77;98142.27;1759038;80;21146;-84
2021/03/01 02:15:17;;;;;;;27.58;17.48;;;;;;;3.30;77.52;98149.16;1682564;84;21192;-83
2021/03/01 02:17:45;;;;;;;27.17;17.17;;;;;;;3.19;77.48;98155.24;1683349;84;21153;-83
2021/03/01 02:20:12;;;;;;;26.17;17.73;;;;;;;3.14;77.47;98156.83;1744255;80;21511;-83
2021/03/01 02:22:40;;;;;;;27.05;17.62;;;;;;;3.09;77.42;98156.08;1728340;80;21502;-84
2021/03/01 02:25:11;;;;;;;28.50;18.40;;;;;;;3.06;77.36;98146.49;1763200;80;21142;-84
2021/03/01 02:27:43;;;;;;;26.82;17.92;;;;;;;3.00;77.32;98151.20;1768680;80;21130;-83
2021/03/01 02:30:31;;;;;;;23.12;16.48;;;;;;;3.01;77.39;98151.52;1781909;80;21108;-83
2021/03/01 02:33:08;;;;;;;25.90;16.17;;;;;;;3.03;77.37;98154.23;1775108;80;21461;-83
2021/03/01 02:35:38;;;;;;;27.05;16.77;;;;;;;3.06;77.38;98154.35;1766216;80;21117;-84
2021/03/01 02:38:08;;;;;;;;;;;;;;;3.13;77.42;98158.64;1788915;80;21108;-83
2021/03/01 02:40:37;;;;;;;27.73;16.75;;;;;;;3.20;77.37;98156.86;1766836;80;20137;-84
2021/03/01 02:43:06;;;;;;;29.07;17.52;;;;;;;3.21;77.17;98156.36;1763716;80;21116;-84
2021/03/01 02:45:33;;;;;;;26.57;18.40;;;;;;;3.19;77.06;98159.67;1784954;80;21105;-84
2021/03/01 02:48:03;;;;;;;25.85;16.07;;;;;;;3.13;76.98;98154.72;1780053;80;21102;-83
2021/03/01 02:50:31;;;;;;;26.02;17.23;;;;;;;3.14;76.98;98158.95;1763909;80;21487;-84
2021/03/01 02:53:00;;;;;;;23.75;15.72;;;;;;;3.06;76.94;98156.97;1770972;79;21123;-84
2021/03/01 02:55:28;;;;;;;26.70;18.35;;;;;;;3.03;77.02;98153.44;1765204;79;21116;-83
2021/03/01 02:57:57;;;;;;;27.55;18.82;;;;;;;2.91;76.93;98151.84;1780092;79;21107;-84
2021/03/01 03:00:25;;;;;;;27.30;16.00;;;;;;;2.80;77.07;98144.00;1800635;79;21141;-83
2021/03/01 03:02:54;;;;;;;26.95;18.20;;;;;;;2.70;77.28;98146.16;1765210;79;21569;-83
2021/03/01 03:05:24;;;;;;;31.33;18.62;;;;;;;2.62;77.31;98150.22;1765106;79;21200;-83
2021/03/01 03:07:51;;;;;;;31.60;19.23;;;;;;;2.57;77.41;98158.64;1760303;79;21154;-84
2021/03/01 03:10:20;;;;;;;23.25;14.10;;;;;;;2.54;77.52;98156.41;1778089;79;21128;-84
2021/03/01 03:12:48;;;;;;;32.15;18.17;;;;;;;2.55;77.89;98163.77;1774271;79;21519;-84
2021/03/01 03:15:21;;;;;;;24.77;17.30;;;;;;;2.46;77.69;98164.38;1758778;79;21123;-83
2021/03/01 03:17:50;;;;;;;28.05;17.95;;;;;;;2.49;77.79;98164.00;1772422;79;21143;-84
2021/03/01 03:20:17;;;;;;;29.10;17.57;;;;;;;2.58;77.82;98163.38;1782048;79;21143;-83
2021/03/01 03:22:45;;;;;;;26.85;16.60;;;;;;;2.62;77.80;98162.81;1785272;79;21147;-83
2021/03/01 03:25:13;;;;;;;23.27;14.35;;;;;;;2.63;77.75;98160.50;1782510;79;21103;-84
2021/03/01 03:27:40;;;;;;;22.73;13.85;;;;;;;2.66;77.73;98165.84;1769702;79;21213;-83
2021/03/01 03:30:16;;;;;;;23.50;14.15;;;;;;;2.72;77.67;98172.96;1760457;79;21144;-83
2021/03/01 03:32:44;;;;;;;23.55;14.75;;;;;;;2.77;77.61;98173.19;1774395;79;21123;-83
2021/03/01 03:35:12;;;;;;;24.37;14.38;;;;;;;2.80;77.53;98163.64;1783479;79;21095;-83
2021/03/01 03:37:47;;;;;;;23.90;14.98;;;;;;;2.81;77.41;98171.80;1773000;79;21466;-83
2021/03/01 03:40:16;;;;;;;27.27;15.78;;;;;;;2.86;77.53;98172.56;1760429;79;21111;-84
2021/03/01 03:42:44;;;;;;;23.73;14.85;;;;;;;2.91;77.45;98165.74;1760933;79;21181;-84
2021/03/01 03:45:15;;;;;;;23.55;14.53;;;;;;;2.98;77.40;98176.28;1759151;79;21455;-84
2021/03/01 03:47:45;;;;;;;22.77;13.83;;;;;;;2.96;77.20;98168.62;1778592;79;21112;-84
2021/03/01 03:50:14;;;;;;;21.62;13.88;;;;;;;2.90;77.07;98175.10;1798389;79;21099;-84
2021/03/01 03:52:46;;;;;;;26.07;14.80;;;;;;;2.74;77.24;98173.58;1777203;79;21123;-84
2021/03/01 03:55:19;;;;;;;24.92;15.15;;;;;;;2.51;77.53;98176.40;1766836;80;21258;-83
2021/03/01 03:57:55;;;;;;;25.52;15.55;;;;;;;2.38;77.88;98173.16;1756923;80;21349;-84
2021/03/01 04:00:26;;;;;;;20.70;12.33;;;;;;;2.33;77.88;98174.23;1775976;80;21148;-84
2021/03/01 04:02:54;;;;;;;;;;;;;;;2.40;78.19;98174.31;1772374;80;21135;-84
2021/03/01 04:05:24;;;;;;;23.60;14.55;;;;;;;2.40;78.16;98181.35;1753895;80;20105;-84
2021/03/01 04:07:53;;;;;;;28.38;16.60;;;;;;;2.31;78.52;98180.16;1752685;80;21154;-83
2021/03/01 04:10:22;;;;;;;27.87;15.83;;;;;;;2.21;78.62;98180.95;1768614;80;21476;-83
2021/03/01 04:12:53;;;;;;;29.27;16.02;;;;;;;2.24;78.67;98180.58;1744944;80;21131;-83
2021/03/01 04:15:21;;;;;;;26.73;17.77;;;;;;;2.26;78.79;98175.99;1743688;80;21110;-83
2021/03/01 04:17:49;;;;;;;23.57;14.18;;;;;;;2.24;78.71;98181.88;1765312;80;21117;-84
2021/03/01 04:20:22;;;;;;;26.48;16.50;;;;;;;2.30;79.07;98177.73;1776097;80;21470;-84
2021/03/01 04:22:52;;;;;;;26.73;16.65;;;;;;;2.25;78.80;98180.91;1781341;80;21146;-84
2021/03/01 04:25:21;;;;;;;24.75;16.10;;;;;;;2.25;78.78;98179.61;1788102;80;21082;-84
2021/03/01 04:27:50;;;;;;;26.42;15.45;;;;;;;2.37;78.84;98182.51;1773917;80;21114;-84
2021/03/01 04:30:19;;;;;;;25.77;14.95;;;;;;;2.44;79.07;98174.73;1768192;80;21112;-83
2021/03/01 04:32:48;;;;;;;26.20;15.45;;;;;;;2.44;78.88;98179.97;1759821;80;21120;-83
2021/03/01 04:35:19;;;;;;;32.63;17.07;;;;;;;2.38;79.02;98174.97;1779671;80;21140;-84
2021/03/01 04:37:47;;;;;;;27.82;17.80;;;;;;;2.33;78.88;98182.08;1790381;80;21074;-83
2021/03/01 04:40:16;;;;;;;26.40;16.12;;;;;;;2.30;78.87;98185.08;1759763;79;21085;-84
2021/03/01 04:42:46;;;;;;;24.77;14.58;;;;;;;2.37;79.00;98189.05;1766518;80;21250;-83
2021/03/01 04:45:17;;;;;;;26.93;15.47;;;;;;;2.45;78.93;98186.83;1772356;80;21162;-84
2021/03/01 04:47:50;;;;;;;26.73;15.50;;;;;;;2.47;78.95;98183.52;1762152;80;21358;-84
2021/03/01 04:50:19;;;;;;;27.90;16.48;;;;;;;2.44;78.98;98188.63;1765261;80;21117;-83
2021/03/01 04:52:47;;;;;;;19.42;12.37;;;;;;;2.42;78.96;98189.83;1774566;79;21187;-83
2021/03/01 04:55:16;;;;;;;27.40;15.70;;;;;;;2.37;79.17;98184.63;1757854;79;21479;-83
2021/03/01 04:57:44;;;;;;;31.97;16.80;;;;;;;2.26;79.18;98188.27;1769512;79;21135;-84
2021/03/01 05:00:13;;;;;;;26.60;16.57;;;;;;;2.21;79.37;98186.19;1759260;80;21136;-83
2021/03/01 05:02:42;;;;;;;26.90;14.50;;;;;;;2.17;79.58;98187.56;1773949;79;21187;-83
2021/03/01 05:05:11;;;;;;;30.68;15.38;;;;;;;2.17;79.68;98191.48;1758605;79;21130;-84
2021/03/01 05:07:39;;;;;;;24.65;14.80;;;;;;;2.16;79.75;98189.87;1750400;79;21154;-84
2021/03/01 05:10:11;;;;;;;25.82;15.03;;;;;;;2.13;80.08;98187.63;1772981;79;21144;-84
2021/03/01 05:12:38;;;;;;;24.30;14.45;;;;;;;2.10;80.07;98194.52;1766806;79;21112;-84
2021/03/01 05:15:07;;;;;;;25.10;14.80;;;;;;;2.11;80.12;98197.94;1758123;79;21140;-83
2021/03/01 05:17:34;;;;;;;18.80;11.10;;;;;;;2.13;80.17;98206.44;1776595;79;21120;-83
2021/03/01 05:20:01;;;;;;;30.85;16.10;;;;;;;2.14;80.40;98206.75;1772747;79;21108;-83
2021/03/01 05:22:29;;;;;;;25.50;14.58;;;;;;;2.08;80.36;98207.78;1765433;81;21135;-83
2021/03/01 05:24:56;;;;;;;23.67;14.25;;;;;;;2.05;80.96;98199.50;1789841;79;21128;-83
2021/03/01 05:27:23;;;;;;;27.32;16.00;;;;;;;1.98;81.13;98205.98;1772144;79;21144;-84
2021/03/01 05:29:50;;;;;;;29.60;16.90;;;;;;;1.95;81.48;98202.41;1758922;79;21154;-83
2021/03/01 05:32:17;;;;;;;29.27;16.10;;;;;;;1.91;81.36;98209.00;1772171;79;21329;-83
2021/03/01 05:34:44;;;;;;;24.92;14.83;;;;;;;1.91;81.71;98208.19;1787625;79;21111;-83
2021/03/01 05:37:10;;;;;;;27.52;15.93;;;;;;;1.91;81.71;98209.50;1786897;79;21150;-83
2021/03/01 05:39:37;;;;;;;28.35;15.32;;;;;;;1.89;82.00;98214.91;1764422;79;21111;-84
2021/03/01 05:42:06;;;;;;;34.20;17.25;;;;;;;1.86;82.05;98207.45;1768888;79;21529;-83
2021/03/01 05:44:33;;;;;;;21.87;14.10;;;;;;;1.85;82.04;98220.20;1762276;79;21099;-84
2021/03/01 05:47:03;;;;;;;27.17;14.93;;;;;;;1.87;82.25;98225.25;1772289;79;21121;-83
2021/03/01 05:49:33;;;;;;;28.07;15.20;;;;;;;1.88;82.36;98226.88;1769494;79;21140;-83
2021/03/01 05:52:04;;;;;;;35.85;16.85;;;;;;;1.89;82.42;98232.41;1750327;80;21122;-83
2021/03/01 05:54:35;;;;;;;31.12;17.05;;;;;;;1.86;82.37;98228.36;1748664;80;21111;-83
2021/03/01 05:57:06;;;;;;;32.42;18.92;;;;;;;1.86;82.47;98234.90;1753198;80;21549;-83
2021/03/01 05:59:34;;;;;;;33.80;18.10;;;;;;;1.86;82.71;98232.78;1758750;80;21146;-84
2021/03/01 06:02:02;;;;;;;29.07;16.05;;;;;;;1.84;82.71;98241.31;1764938;80;21471;-83
2021/03/01 06:04:29;;;;;;;33.53;18.52;;;;;;;1.87;82.63;98243.55;1757261;80;21121;-83
2021/03/01 06:06:57;;;;;;;33.00;18.20;;;;;;;1.90;82.62;98249.72;1747405;80;21128;-83
2021/03/01 06:09:24;;;;;;;31.77;17.52;;;;;;;1.93;82.52;98250.66;1754751;80;21115;-83
2021/03/01 06:11:54;;;;;;;31.65;17.42;;;;;;;1.94;82.65;98253.09;1784136;80;21111;-83
2021/03/01 06:14:23;;;;;;;34.10;19.20;;;;;;;1.94;82.76;98252.28;1769797;79;21462;-84
2021/03/01 06:17:17;;;;;;;29.75;17.02;;;;;;;1.94;82.66;98254.39;1773120;80;21146;-83
2021/03/01 06:19:51;;;;;;;35.05;19.15;;;;;;;1.99;82.67;98260.41;1756436;79;21444;-83
2021/03/01 06:22:26;;;;;;;31.77;17.65;;;;;;;1.96;82.81;98265.98;1761349;80;21479;-83
2021/03/01 06:25:14;;;;;;;34.80;19.15;;;;;;;1.97;82.88;98266.29;1748406;80;21197;-84
2021/03/01 06:27:54;;;;;;;33.58;18.02;;;;;;;1.92;83.24;98272.58;1751784;80;21083;-83
2021/03/01 06:30:37;;;;;;;41.95;20.55;;;;;;;1.88;83.82;98273.44;1765317;80;21111;-83
2021/03/01 06:33:15;;;;;;;37.17;20.15;;;;;;;1.78;83.88;98278.94;1743474;80;21123;-83
2021/03/01 06:35:49;;;;;;;33.70;17.90;;;;;;;1.79;83.78;98284.98;1758604;80;21135;-83
2021/03/01 06:38:31;;;;;;;38.53;19.35;;;;;;;1.83;84.10;98278.88;1766644;80;21106;-83
2021/03/01 06:41:21;;;;;;;34.60;18.32;;;;;;;1.79;84.46;98283.67;1769488;80;21138;-83
2021/03/01 06:44:01;;;;;;;29.57;16.55;;;;;;;1.76;84.23;98283.55;1763111;80;21171;-83
2021/03/01 06:46:33;;;;;;;43.00;22.98;;;;;;;1.81;84.21;98283.48;1757152;80;21130;-84
2021/03/01 06:49:16;;;;;;;39.20;21.15;;;;;;;1.83;84.38;98288.88;1765534;80;21144;-83
2021/03/01 06:51:44;;;;;;;39.13;20.05;;;;;;;1.83;84.52;98278.42;1766597;80;21532;-84
2021/03/01 06:54:23;;;;;;;41.23;20.68;;;;;;;1.86;84.28;98282.47;1762684;80;21189;-84
2021/03/01 06:56:51;;;;;;;38.63;22.90;;;;;;;1.92;84.23;98289.58;1768180;80;21164;-83
2021/03/01 06:59:20;;;;;;;39.67;20.08;;;;;;;1.99;84.21;98298.33;1768138;80;21138;-84
2021/03/01 07:01:58;;;;;;;44.33;22.67;;;;;;;2.08;84.17;98295.91;1765847;80;21152;-84
2021/03/01 07:04:31;;;;;;;39.83;20.27;;;;;;;2.15;84.03;98301.24;1775387;80;21129;-83
2021/03/01 07:07:01;;;;;;;29.92;16.25;;;;;;;2.25;83.97;98306.98;1766924;80;21167;-83
2021/03/01 07:09:32;;;;;;;35.95;20.72;;;;;;;2.29;83.88;98301.22;1764266;80;21449;-84
2021/03/01 07:12:00;;;;;;;36.83;20.47;;;;;;;2.32;83.77;98310.50;1743654;80;21191;-83
2021/03/01 07:14:29;;;;;;;36.70;19.37;;;;;;;2.37;83.75;98314.67;1769495;80;21188;-83
2021/03/01 07:17:00;;;;;;;41.10;21.07;;;;;;;2.46;83.69;98314.08;1767596;80;21206;-84
2021/03/01 07:19:33;;;;;;;41.13;20.35;;;;;;;2.47;83.47;98309.16;1761601;80;21120;-84
2021/03/01 07:22:05;;;;;;;31.85;17.98;;;;;;;2.49;83.43;98311.89;1773368;80;21174;-81
2021/03/01 07:24:33;;;;;;;39.23;20.08;;;;;;;2.46;83.46;98318.00;1775865;80;21137;-81
2021/03/01 07:27:05;;;;;;;28.35;16.37;;;;;;;2.33;83.30;98313.43;1744707;80;21530;-81
2021/03/01 07:29:36;;;;;;;27.73;16.05;;;;;;;2.31;83.54;98319.34;1765692;80;21134;-82
2021/03/01 07:32:07;;;;;;;33.83;18.42;;;;;;;2.29;83.59;98317.41;1762896;80;21485;-81
2021/03/01 07:34:35;;;;;;;;;;;;;;;2.31;83.65;98321.47;1774709;80;21276;-82
2021/03/01 07:37:04;;;;;;;36.40;18.50;;;;;;;2.34;83.67;98315.86;1766982;80;20122;-81
2021/03/01 07:39:36;;;;;;;24.90;13.75;;;;;;;2.38;83.66;98326.77;1769746;80;21098;-82
2021/03/01 07:42:06;;;;;;;34.92;18.07;;;;;;;2.44;83.90;98319.50;1730114;81;21166;-81
2021/03/01 07:44:36;;;;;;;19.65;11.53;;;;;;;2.42;83.83;98328.54;1767837;80;21146;-81
2021/03/01 07:47:06;;;;;;;36.80;20.02;;;;;;;2.51;83.91;98330.03;1768106;80;21497;-82
2021/03/01 07:49:48;;;;;;;39.55;20.75;;;;;;;2.54;83.85;98330.50;1773712;80;21147;-82
2021/03/01 07:52:27;;;;;;;30.50;18.52;;;;;;;2.60;83.93;98335.48;1765237;80;21530;-83
2021/03/01 07:55:07;;;;;;;36.65;20.43;;;;;;;2.63;83.92;98332.48;1774189;79;21637;-83
2021/03/01 07:57:37;;;;;;;28.00;15.85;;;;;;;2.47;84.00;98332.22;1770103;79;21081;-83
2021/03/01 08:00:33;;;;;;;30.57;18.12;;;;;;;2.47;84.21;98332.72;1781466;79;21516;-83
2021/03/01 08:03:21;;;;;;;29.50;14.30;;;;;;;2.44;84.36;98340.94;1774346;79;21132;-83
2021/03/01 08:05:54;;;;;;;33.80;17.85;;;;;;;2.30;85.14;98329.50;1779209;79;21154;-83
2021/03/01 08:08:49;;;;;;;24.60;14.15;;;;;;;2.17;85.64;98341.11;1763019;79;21162;-84
2021/03/01 08:11:43;;;;;;;28.73;16.02;;;;;;;2.13;85.96;98335.44;1775137;79;21162;-84
2021/03/01 08:14:14;;;;;;;28.57;16.95;;;;;;;2.07;86.43;98340.07;1791213;79;21143;-83
2021/03/01 08:16:42;;;;;;;27.80;14.20;;;;;;;2.04;86.55;98345.17;1749959;79;21118;-83
2021/03/01 08:19:09;;;;;;;24.60;13.03;;;;;;;2.04;86.93;98343.86;1780361;79;21147;-83
2021/03/01 08:22:05;;;;;;;29.63;16.65;;;;;;;2.03;87.35;98341.43;1766262;79;21126;-83
2021/03/01 08:24:56;;;;;;;26.40;14.40;;;;;;;2.01;87.22;98342.92;1792296;79;21122;-83
2021/03/01 08:27:32;;;;;;;29.77;14.87;;;;;;;2.01;87.35;98354.70;1760408;79;21495;-84
2021/03/01 08:30:24;;;;;;;27.27;15.95;;;;;;;2.01;87.46;98352.08;1759949;79;21102;-84
2021/03/01 08:33:15;;;;;;;27.75;16.65;;;;;;;2.02;87.16;98355.50;1763877;79;21480;-83
2021/03/01 08:35:53;;;;;;;31.48;17.00;;;;;;;2.12;86.94;98359.98;1787071;79;21166;-84
2021/03/01 08:38:49;;;;;;;30.55;16.45;;;;;;;2.30;86.72;98365.64;1782664;79;21157;-84
2021/03/01 08:41:19;;;;;;;30.27;15.65;;;;;;;2.43;86.52;98368.11;1716980;83;21186;-83
2021/03/01 08:43:48;;;;;;;25.85;14.03;;;;;;;2.41;86.36;98361.75;1758017;80;21117;-83
2021/03/01 08:46:20;;;;;;;27.17;15.03;;;;;;;2.41;86.22;98366.17;1773066;80;21166;-84
2021/03/01 08:48:51;;;;;;;34.38;17.92;;;;;;;2.43;86.07;98368.92;1766901;80;21488;-84
2021/03/01 08:51:20;;;;;;;29.18;14.15;;;;;;;2.44;86.17;98367.92;1765904;80;21180;-84
2021/03/01 08:53:53;;;;;;;25.27;12.73;;;;;;;2.42;86.25;98371.73;1775462;79;21109;-84
2021/03/01 08:56:25;;;;;;;23.55;13.95;;;;;;;2.43;86.30;98372.03;1767060;80;21168;-84
2021/03/01 08:58:55;;;;;;;29.40;16.07;;;;;;;2.45;86.36;98375.28;1768777;80;21161;-84
2021/03/01 09:01:23;;;;;;;26.23;14.18;;;;;;;2.51;86.25;98378.46;1766612;80;21117;-83
2021/03/01 09:03:50;;;;;;;26.87;14.85;;;;;;;2.59;86.13;98383.61;1765500;80;21315;-84
2021/03/01 09:06:24;;;;;;;29.70;14.45;;;;;;;2.58;86.07;98382.80;1768368;80;21160;-84
2021/03/01 09:08:55;;;;;;;32.33;17.77;;;;;;;2.61;86.01;98385.54;1768059;80;21142;-82
2021/03/01 09:11:30;;;;;;;31.55;16.30;;;;;;;2.53;85.98;98392.17;1767359;80;21164;-82
2021/03/01 09:14:01;;;;;;;29.05;16.75;;;;;;;2.56;85.98;98390.02;1770686;81;21317;-81
2021/03/01 09:16:32;;;;;;;32.33;17.40;;;;;;;2.66;85.93;98389.72;1763584;80;21480;-81
2021/03/01 09:19:03;;;;;;;;;;;;;;;2.72;85.79;98395.55;1771299;80;21479;-81
2021/03/01 09:21:34;;;;;;;30.85;17.57;;;;;;;2.76;85.77;98398.10;1766556;80;20122;-83
2021/03/01 09:24:02;;;;;;;32.35;17.35;;;;;;;2.77;85.62;98401.53;1761752;80;21164;-83
2021/03/01 09:26:37;;;;;;;29.27;16.67;;;;;;;2.85;85.58;98403.55;1769657;80;21133;-83
2021/03/01 09:29:18;;;;;;;31.15;18.02;;;;;;;2.87;85.51;98400.25;1767391;80;21130;-83
2021/03/01 09:31:53;;;;;;;24.47;15.05;;;;;;;2.95;85.60;98401.42;1760869;80;21445;-83
2021/03/01 09:34:24;;;;;;;29.10;16.15;;;;;;;3.05;85.45;98399.02;1772468;80;21180;-83
2021/03/01 09:36:52;;;;;;;26.97;16.00;;;;;;;2.97;85.20;98399.95;1773385;80;21339;-83
2021/03/01 09:39:26;;;;;;;33.18;17.80;;;;;;;2.85;85.01;98403.55;1765454;81;21124;-83
2021/03/01 09:41:55;;;;;;;27.67;16.77;;;;;;;2.87;85.26;98397.62;1766294;80;21141;-83
2021/03/01 09:44:26;;;;;;;27.02;15.38;;;;;;;2.86;85.13;98410.41;1767937;80;21164;-83
2021/03/01 09:46:56;;;;;;;29.63;17.90;;;;;;;3.03;85.18;98407.06;1766123;80;21109;-83
2021/03/01 09:49:26;;;;;;;28.75;17.27;;;;;;;3.15;85.06;98410.82;1748166;80;21439;-83
2021/03/01 09:51:53;;;;;;;31.80;17.98;;;;;;;3.20;85.00;98409.75;1760733;80;21513;-83
2021/03/01 09:54:25;;;;;;;29.25;15.05;;;;;;;3.36;85.07;98411.31;1768330;79;21165;-83
2021/03/01 09:56:54;;;;;;;31.35;16.95;;;;;;;3.51;84.86;98414.67;1748386;79;21555;-83
2021/03/01 09:59:34;;;;;;;27.15;15.32;;;;;;;3.59;84.53;98424.23;1763322;79;21123;-83
2021/03/01 10:02:14;;;;;;;32.78;18.87;;;;;;;3.60;84.04;98428.47;1754491;79;21171;-84
2021/03/01 10:04:42;;;;;;;26.20;15.25;;;;;;;3.51;83.83;98421.23;1741320;81;21251;-83
2021/03/01 10:07:25;;;;;;;35.20;19.05;;;;;;;3.37;83.75;98416.05;1754469;81;21128;-84
2021/03/01 10:09:54;;;;;;;24.67;15.18;;;;;;;3.22;83.79;98427.41;1775476;79;21148;-84
2021/03/01 10:12:25;;;;;;;24.63;15.30;;;;;;;3.21;83.98;98419.23;1759111;79;21126;-84
2021/03/01 10:15:00;;;;;;;25.88;15.35;;;;;;;3.13;83.78;98419.88;1788112;79;21167;-84
2021/03/01 10:17:31;;;;;;;24.57;14.68;;;;;;;3.13;83.92;98420.68;1777633;79;21510;-84
2021/03/01 10:20:10;;;;;;;21.37;13.70;;;;;;;3.06;83.95;98425.52;1778759;79;21140;-84
2021/03/01 10:23:05;;;;;;;22.98;14.30;;;;;;;3.08;83.96;98423.53;1772647;79;21155;-83
2021/03/01 10:25:39;;;;;;;28.12;14.73;;;;;;;3.13;84.09;98415.94;1787314;79;21157;-84
2021/03/01 10:28:27;;;;;;;27.82;14.60;;;;;;;3.12;84.05;98422.18;1783684;79;21179;-84
2021/03/01 10:31:10;;;;;;;24.87;14.15;;;;;;;3.09;83.91;98427.77;1767381;79;21614;-84
2021/03/01 10:34:03;;;;;;;24.47;13.65;;;;;;;3.12;83.85;98425.61;1770635;79;21107;-84
2021/03/01 10:36:37;;;;;;;26.95;15.65;;;;;;;3.18;83.86;98431.41;1768010;79;21156;-84
2021/03/01 10:39:09;;;;;;;24.47;14.60;;;;;;;3.18;83.88;98432.72;1756168;81;21165;-84
2021/03/01 10:41:50;;;;;;;27.15;14.68;;;;;;;3.13;83.98;98436.91;1742545;81;21186;-84
2021/03/01 10:44:31;;;;;;;28.20;17.73;;;;;;;3.18;83.99;98437.14;1776321;79;21109;-84
2021/03/01 10:47:20;;;;;;;25.82;14.85;;;;;;;3.18;83.82;98438.45;1781417;79;21108;-84
2021/03/01 10:49:50;;;;;;;24.80;14.33;;;;;;;3.18;83.81;98435.34;1737405;81;21126;-84
2021/03/01 10:52:18;;;;;;;21.97;12.13;;;;;;;3.13;84.04;98438.22;1756581;81;21114;-84
2021/03/01 10:54:45;;;;;;;22.52;14.23;;;;;;;3.10;84.15;98420.25;1751327;81;21172;-84
2021/03/01 10:57:13;;;;;;;25.95;14.87;;;;;;;3.05;84.07;98429.95;1746022;81;21131;-84
2021/03/01 10:59:41;;;;;;;27.90;16.30;;;;;;;3.08;84.42;98430.08;1772713;80;21126;-84
2021/03/01 11:02:09;;;;;;;25.85;14.78;;;;;;;3.12;84.44;98437.41;1767330;80;21156;-84
2021/03/01 11:04:36;;;;;;;29.55;18.15;;;;;;;3.19;84.27;98440.89;1773841;80;21130;-84
2021/03/01 11:07:03;;;;;;;28.10;16.82;;;;;;;3.26;84.23;98434.42;1771414;80;21310;-84
2021/03/01 11:09:30;;;;;;;22.75;13.68;;;;;;;3.25;84.19;98432.80;1765789;80;21492;-84
2021/03/01 11:11:57;;;;;;;23.22;13.35;;;;;;;3.25;84.09;98430.98;1760047;80;21142;-84
2021/03/01 11:14:24;;;;;;;23.35;14.45;;;;;;;3.20;84.27;98427.28;1763026;80;21137;-84
2021/03/01 11:16:53;;;;;;;24.43;14.30;;;;;;;3.20;84.40;98432.53;1765278;80;21120;-84
2021/03/01 11:19:20;;;;;;;26.60;13.62;;;;;;;3.21;84.43;98431.03;1765863;80;21129;-84
2021/03/01 11:21:49;;;;;;;25.20;12.88;;;;;;;3.19;84.28;98432.22;1771434;80;21128;-84
2021/03/01 11:24:19;;;;;;;21.65;13.30;;;;;;;3.17;84.40;98433.72;1774374;80;21297;-84
2021/03/01 11:26:46;;;;;;;25.55;15.20;;;;;;;3.18;84.52;98434.52;1771075;80;21137;-84
2021/03/01 11:29:13;;;;;;;22.32;12.40;;;;;;;3.28;84.65;98436.35;1768163;80;21113;-85
2021/03/01 11:31:40;;;;;;;24.80;14.03;;;;;;;3.44;84.51;98437.91;1760778;80;21461;-84
2021/03/01 11:34:09;;;;;;;27.45;15.40;;;;;;;3.46;84.14;98445.09;1770061;80;21131;-84
2021/03/01 11:36:38;;;;;;;24.67;15.80;;;;;;;3.49;83.99;98447.33;1773573;80;21155;-84
2021/03/01 11:39:09;;;;;;;27.83;15.37;;;;;;;3.55;84.02;98447.41;1771934;80;21081;-84
2021/03/01 11:41:38;;;;;;;25.43;16.00;;;;;;;3.67;83.87;98441.66;1772465;80;21217;-84
2021/03/01 11:44:07;;;;;;;25.85;15.00;;;;;;;3.70;83.47;98440.77;1738141;80;21121;-84
2021/03/01 11:46:36;;;;;;;25.30;13.00;;;;;;;3.73;83.42;98443.52;1767312;81;21154;-84